createdAt,value
2018-02-10T00:01:44.509Z,1.20
2018-02-10T00:04:12.768Z,1.20
2018-02-10T00:06:41.848Z,1.20
2018-02-10T00:09:11.885Z,1.20
2018-02-10T00:11:40.186Z,1.20
2018-02-10T00:14:09.297Z,1.20
2018-02-10T00:16:37.683Z,1.20
2018-02-10T00:19:06.157Z,1.20
2018-02-10T00:21:34.648Z,1.20
2018-02-10T00:24:02.943Z,1.30
2018-02-10T00:26:31.240Z,1.30
2018-02-10T00:28:59.549Z,1.30
2018-02-10T00:31:28.595Z,1.30
2018-02-10T00:33:56.883Z,1.30
2018-02-10T00:36:25.165Z,1.30
2018-02-10T00:38:53.443Z,1.30
2018-02-10T00:41:22.481Z,1.30
2018-02-10T00:43:50.751Z,1.20
2018-02-10T00:46:19.048Z,1.20
2018-02-10T00:48:47.332Z,1.20
2018-02-10T00:51:15.619Z,1.30
2018-02-10T00:53:43.907Z,1.30
2018-02-10T00:56:12.178Z,1.30
2018-02-10T00:58:40.451Z,1.30
2018-02-10T01:01:09.556Z,1.30
2018-02-10T01:03:38.630Z,1.30
2018-02-10T01:06:07.063Z,1.20
2018-02-10T01:08:35.346Z,1.30
2018-02-10T01:11:04.586Z,1.30
2018-02-10T01:13:33.615Z,1.30
2018-02-10T01:16:01.934Z,1.20
2018-02-10T01:18:30.238Z,1.30
2018-02-10T01:21:00.636Z,1.30
2018-02-10T01:23:28.923Z,1.30
2018-02-10T01:25:57.203Z,1.30
2018-02-10T01:28:25.581Z,1.30
2018-02-10T01:30:53.859Z,1.30
2018-02-10T01:33:22.955Z,1.30
2018-02-10T01:35:52.065Z,1.30
2018-02-10T01:38:21.110Z,1.30
2018-02-10T01:40:49.364Z,1.30
2018-02-10T01:43:17.691Z,1.40
2018-02-10T01:45:45.975Z,1.40
2018-02-10T01:48:14.276Z,1.40
2018-02-10T01:50:42.531Z,1.40
2018-02-10T01:53:10.807Z,1.40
2018-02-10T01:55:39.896Z,1.50
2018-02-10T01:58:08.313Z,1.40
2018-02-10T02:00:36.707Z,1.50
2018-02-10T02:03:06.015Z,1.50
2018-02-10T02:05:34.329Z,1.50
2018-02-10T02:08:02.637Z,1.50
2018-02-10T02:10:30.905Z,1.50
2018-02-10T02:12:59.215Z,1.50
2018-02-10T02:15:27.473Z,1.60
2018-02-10T02:17:56.530Z,1.60
2018-02-10T02:20:24.899Z,1.50
2018-02-10T02:22:54.031Z,1.60
2018-02-10T02:25:22.429Z,1.50
2018-02-10T02:27:50.795Z,1.60
2018-02-10T02:30:19.072Z,1.60
2018-02-10T02:32:47.379Z,1.60
2018-02-10T02:35:15.636Z,1.50
2018-02-10T02:37:45.356Z,1.60
2018-02-10T02:40:14.415Z,1.60
2018-02-10T02:42:42.672Z,1.60
2018-02-10T02:45:10.962Z,1.60
2018-02-10T02:47:39.283Z,1.60
2018-02-10T02:50:07.633Z,1.70
2018-02-10T02:52:36.329Z,1.60
2018-02-10T02:55:04.658Z,1.70
2018-02-10T02:57:32.948Z,1.60
2018-02-10T03:00:01.256Z,1.60
2018-02-10T03:02:29.531Z,1.60
2018-02-10T03:04:57.829Z,1.60
2018-02-10T03:07:26.132Z,1.60
2018-02-10T03:09:54.486Z,1.60
2018-02-10T03:12:22.763Z,1.60
2018-02-10T03:14:51.031Z,1.70
2018-02-10T03:17:19.294Z,1.60
2018-02-10T03:19:47.582Z,1.60
2018-02-10T03:22:16.076Z,1.60
2018-02-10T03:24:44.368Z,1.60
2018-02-10T03:27:12.633Z,1.60
2018-02-10T03:29:40.955Z,1.50
2018-02-10T03:32:09.300Z,1.60
2018-02-10T03:34:37.689Z,1.60
2018-02-10T03:37:06.025Z,1.70
2018-02-10T03:39:34.394Z,1.70
2018-02-10T03:42:02.681Z,1.70
2018-02-10T03:44:31.050Z,1.60
2018-02-10T03:46:59.340Z,1.60
2018-02-10T03:49:27.617Z,1.60
2018-02-10T03:51:55.913Z,1.60
2018-02-10T03:54:24.238Z,1.50
2018-02-10T03:56:52.579Z,1.50
2018-02-10T03:59:20.860Z,1.50
2018-02-10T04:01:49.127Z,1.60
2018-02-10T04:04:18.159Z,1.60
2018-02-10T04:06:46.465Z,1.50
2018-02-10T04:09:14.734Z,1.50
2018-02-10T04:11:43.006Z,1.50
2018-02-10T04:14:11.273Z,1.50
2018-02-10T04:16:39.585Z,1.50
2018-02-10T04:19:08.644Z,1.60
2018-02-10T04:21:37.046Z,1.50
2018-02-10T04:24:05.418Z,1.60
2018-02-10T04:26:34.174Z,1.50
2018-02-10T04:29:02.566Z,1.50
2018-02-10T04:31:30.871Z,1.60
2018-02-10T04:33:59.139Z,1.60
2018-02-10T04:36:28.358Z,1.50
2018-02-10T04:38:56.640Z,1.50
2018-02-10T04:41:25.688Z,1.50
2018-02-10T04:43:53.970Z,1.50
2018-02-10T04:46:22.248Z,1.50
2018-02-10T04:48:50.550Z,1.50
2018-02-10T04:51:19.617Z,1.50
2018-02-10T04:53:47.888Z,1.50
2018-02-10T04:56:17.043Z,1.50
2018-02-10T04:58:45.320Z,1.50
2018-02-10T05:01:13.642Z,1.50
2018-02-10T05:03:41.937Z,1.50
2018-02-10T05:06:10.228Z,1.40
2018-02-10T05:08:38.483Z,1.40
2018-02-10T05:11:06.759Z,1.40
2018-02-10T05:13:35.022Z,1.50
2018-02-10T05:16:03.299Z,1.40
2018-02-10T05:18:31.583Z,1.40
2018-02-10T05:20:59.850Z,1.40
2018-02-10T05:23:28.115Z,1.30
2018-02-10T05:25:56.416Z,1.40
2018-02-10T05:28:25.484Z,1.40
2018-02-10T05:30:53.746Z,1.40
2018-02-10T05:33:22.073Z,1.50
2018-02-10T05:35:51.460Z,1.40
2018-02-10T05:38:20.403Z,1.40
2018-02-10T05:40:48.749Z,1.40
2018-02-10T05:43:17.098Z,1.40
2018-02-10T05:45:45.714Z,1.40
2018-02-10T05:48:14.204Z,1.40
2018-02-10T05:50:42.753Z,1.30
2018-02-10T05:53:11.287Z,1.40
2018-02-10T05:55:39.838Z,1.40
2018-02-10T05:58:09.131Z,1.40
2018-02-10T06:00:37.677Z,1.40
2018-02-10T06:03:06.318Z,1.40
2018-02-10T06:05:35.052Z,1.40
2018-02-10T06:08:03.564Z,1.40
2018-02-10T06:10:32.279Z,1.40
2018-02-10T06:13:01.062Z,1.30
2018-02-10T06:15:29.567Z,1.30
2018-02-10T06:17:58.229Z,1.30
2018-02-10T06:20:26.671Z,1.30
2018-02-10T06:22:55.172Z,1.30
2018-02-10T06:25:24.274Z,1.30
2018-02-10T06:27:52.849Z,1.30
2018-02-10T06:30:21.232Z,1.30
2018-02-10T06:32:50.191Z,1.30
2018-02-10T06:35:18.735Z,1.30
2018-02-10T06:37:47.413Z,1.30
2018-02-10T06:40:16.496Z,1.30
2018-02-10T06:42:44.803Z,1.30
2018-02-10T06:45:13.906Z,1.40
2018-02-10T06:47:42.381Z,1.40
2018-02-10T06:50:11.042Z,1.50
2018-02-10T06:52:39.750Z,1.50
2018-02-10T06:55:08.550Z,1.50
2018-02-10T06:57:37.819Z,1.60
2018-02-10T07:00:06.639Z,1.50
2018-02-10T07:02:35.132Z,1.60
2018-02-10T07:05:03.752Z,1.60
2018-02-10T07:07:33.171Z,1.60
2018-02-10T07:10:02.895Z,1.60
2018-02-10T07:12:32.307Z,1.60
2018-02-10T07:15:00.683Z,1.60
2018-02-10T07:17:29.711Z,1.70
2018-02-10T07:19:58.766Z,1.70
2018-02-10T07:22:27.050Z,1.70
2018-02-10T07:24:55.398Z,1.80
2018-02-10T07:27:24.422Z,2.00
2018-02-10T07:29:52.698Z,1.90
2018-02-10T07:32:20.996Z,2.00
2018-02-10T07:34:50.042Z,1.90
2018-02-10T07:37:18.303Z,1.80
2018-02-10T07:39:46.659Z,1.70
2018-02-10T07:42:14.923Z,1.80
2018-02-10T07:44:43.207Z,1.80
2018-02-10T07:47:11.483Z,1.80
2018-02-10T07:49:39.780Z,1.80
2018-02-10T07:52:08.156Z,1.80
2018-02-10T07:54:36.457Z,1.70
2018-02-10T07:57:04.810Z,1.80
2018-02-10T07:59:33.146Z,1.70
2018-02-10T08:02:01.414Z,1.60
2018-02-10T08:04:30.055Z,1.70
2018-02-10T08:06:58.810Z,1.60
2018-02-10T08:09:27.393Z,1.60
2018-02-10T08:11:56.931Z,1.60
2018-02-10T08:14:25.373Z,1.60
2018-02-10T08:16:54.738Z,1.70
2018-02-10T08:19:24.173Z,1.70
2018-02-10T08:21:53.254Z,1.80
2018-02-10T08:24:22.047Z,1.80
2018-02-10T08:26:50.881Z,1.90
2018-02-10T08:29:20.279Z,2.00
2018-02-10T08:31:49.108Z,2.10
2018-02-10T08:34:18.075Z,2.10
2018-02-10T08:36:46.940Z,2.10
2018-02-10T08:39:15.386Z,2.50
2018-02-10T08:41:44.101Z,4.10
2018-02-10T08:44:13.033Z,5.00
2018-02-10T08:46:42.102Z,4.90
2018-02-10T08:49:10.655Z,4.70
2018-02-10T08:51:40.067Z,4.30
2018-02-10T08:54:10.292Z,4.00
2018-02-10T08:56:38.764Z,3.90
2018-02-10T08:59:08.369Z,3.90
2018-02-10T09:01:37.383Z,3.90
2018-02-10T09:04:06.212Z,3.80
2018-02-10T09:06:36.038Z,3.60
2018-02-10T09:09:05.823Z,3.60
2018-02-10T09:11:34.361Z,3.50
2018-02-10T09:14:04.120Z,3.50
2018-02-10T09:16:34.024Z,3.40
2018-02-10T09:19:02.708Z,3.60
2018-02-10T09:21:31.485Z,3.80
2018-02-10T09:24:00.521Z,3.70
2018-02-10T09:26:29.157Z,3.80
2018-02-10T09:28:57.851Z,4.00
2018-02-10T09:31:26.821Z,4.00
2018-02-10T09:33:56.186Z,4.20
2018-02-10T09:36:25.829Z,4.20
2018-02-10T09:38:54.710Z,4.20
2018-02-10T09:41:24.453Z,4.30
2018-02-10T09:43:53.178Z,4.30
2018-02-10T09:46:22.709Z,4.30
2018-02-10T09:48:51.223Z,4.20
2018-02-10T09:51:20.992Z,4.50
2018-02-10T09:53:49.936Z,4.60
2018-02-10T09:56:18.528Z,4.80
2018-02-10T09:58:47.585Z,4.90
2018-02-10T10:01:16.212Z,5.00
2018-02-10T10:03:44.680Z,5.10
2018-02-10T10:06:13.258Z,5.10
2018-02-10T10:08:42.247Z,5.00
2018-02-10T10:11:11.840Z,5.00
2018-02-10T10:13:40.538Z,5.00
2018-02-10T10:16:09.710Z,5.10
2018-02-10T10:18:38.536Z,5.10
2018-02-10T10:21:07.332Z,5.20
2018-02-10T10:23:36.430Z,5.30
2018-02-10T10:26:05.324Z,5.50
2018-02-10T10:28:35.254Z,5.70
2018-02-10T10:31:04.242Z,5.60
2018-02-10T10:33:33.164Z,5.50
2018-02-10T10:36:02.928Z,5.10
2018-02-10T10:38:33.725Z,5.30
2018-02-10T10:41:03.006Z,5.20
2018-02-10T10:43:31.638Z,5.30
2018-02-10T10:46:00.349Z,5.40
2018-02-10T10:48:29.668Z,5.50
2018-02-10T10:50:58.559Z,5.50
2018-02-10T10:53:27.610Z,5.60
2018-02-10T10:55:56.663Z,5.50
2018-02-10T10:58:25.622Z,5.40
2018-02-10T11:00:54.841Z,5.40
2018-02-10T11:03:23.733Z,5.10
2018-02-10T11:05:52.664Z,5.20
2018-02-10T11:08:22.489Z,5.00
2018-02-10T11:10:52.159Z,5.10
2018-02-10T11:13:21.035Z,5.00
2018-02-10T11:15:49.890Z,5.00
2018-02-10T11:18:18.918Z,5.00
2018-02-10T11:20:48.647Z,5.20
2018-02-10T11:23:17.520Z,5.10
2018-02-10T11:25:47.087Z,5.20
2018-02-10T11:28:16.076Z,5.10
2018-02-10T11:30:46.025Z,5.10
2018-02-10T11:33:14.727Z,5.00
2018-02-10T11:35:43.618Z,5.00
2018-02-10T11:38:12.483Z,4.80
2018-02-10T11:40:41.786Z,4.70
2018-02-10T11:43:11.104Z,5.80
2018-02-10T11:45:40.021Z,5.90
2018-02-10T11:48:09.072Z,5.40
2018-02-10T11:50:37.889Z,5.00
2018-02-10T11:53:06.670Z,4.80
2018-02-10T11:55:35.593Z,4.60
2018-02-10T11:58:04.149Z,4.50
2018-02-10T12:00:32.728Z,4.50
2018-02-10T12:03:01.810Z,4.50
2018-02-10T12:05:30.209Z,4.40
2018-02-10T12:07:58.520Z,4.30
2018-02-10T12:10:27.647Z,4.20
2018-02-10T12:12:55.964Z,4.20
2018-02-10T12:15:24.606Z,4.20
2018-02-10T12:17:53.379Z,4.20
2018-02-10T12:20:22.032Z,4.20
2018-02-10T12:22:51.694Z,4.40
2018-02-10T12:25:20.192Z,4.40
2018-02-10T12:27:49.502Z,4.50
2018-02-10T12:30:18.084Z,4.60
2018-02-10T12:32:46.533Z,4.70
2018-02-10T12:35:16.332Z,4.80
2018-02-10T12:37:44.954Z,4.70
2018-02-10T12:40:14.310Z,4.90
2018-02-10T12:42:42.800Z,4.90
2018-02-10T12:45:11.581Z,4.90
2018-02-10T12:47:46.115Z,5.00
2018-02-10T12:50:15.358Z,4.90
2018-02-10T12:52:43.741Z,4.90
2018-02-10T12:55:12.491Z,4.80
2018-02-10T12:57:40.897Z,4.80
2018-02-10T13:00:09.361Z,4.60
2018-02-10T13:02:37.975Z,4.60
2018-02-10T13:05:06.408Z,4.60
2018-02-10T13:07:34.866Z,4.60
2018-02-10T13:10:03.317Z,4.50
2018-02-10T13:12:32.485Z,4.40
2018-02-10T13:15:00.922Z,4.40
2018-02-10T13:17:29.412Z,4.30
2018-02-10T13:19:58.051Z,4.40
2018-02-10T13:22:26.869Z,4.40
2018-02-10T13:24:56.348Z,4.10
2018-02-10T13:27:24.829Z,4.00
2018-02-10T13:29:53.258Z,4.00
2018-02-10T13:32:21.960Z,3.90
2018-02-10T13:34:50.360Z,3.90
2018-02-10T13:37:19.816Z,4.20
2018-02-10T13:39:48.484Z,4.20
2018-02-10T13:42:19.694Z,3.90
2018-02-10T13:44:49.513Z,3.50
2018-02-10T13:47:18.109Z,3.50
2018-02-10T13:49:46.482Z,3.40
2018-02-10T13:52:14.984Z,3.30
2018-02-10T13:54:43.484Z,3.20
2018-02-10T13:57:12.330Z,3.20
2018-02-10T13:59:41.726Z,3.10
2018-02-10T14:02:10.356Z,3.00
2018-02-10T14:04:39.475Z,3.00
2018-02-10T14:07:07.920Z,3.00
2018-02-10T14:09:37.402Z,3.00
2018-02-10T14:12:05.844Z,2.90
2018-02-10T14:14:34.120Z,3.00
2018-02-10T14:17:03.509Z,3.00
2018-02-10T14:19:31.838Z,3.00
2018-02-10T14:22:00.409Z,2.90
2018-02-10T14:24:28.790Z,2.80
2018-02-10T14:26:57.644Z,2.70
2018-02-10T14:29:26.015Z,2.70
2018-02-10T14:31:54.761Z,2.50
2018-02-10T14:34:23.195Z,2.40
2018-02-10T14:36:52.534Z,2.40
2018-02-10T14:39:21.171Z,2.40
2018-02-10T14:41:50.332Z,2.40
2018-02-10T14:44:19.219Z,2.30
2018-02-10T14:46:47.973Z,2.30
2018-02-10T14:49:17.968Z,2.20
2018-02-10T14:51:46.512Z,2.20
2018-02-10T14:54:14.993Z,2.20
2018-02-10T14:56:44.455Z,2.30
2018-02-10T14:59:12.986Z,2.20
2018-02-10T15:01:41.833Z,2.30
2018-02-10T15:04:10.424Z,2.30
2018-02-10T15:06:39.740Z,2.50
2018-02-10T15:09:08.105Z,2.40
2018-02-10T15:11:37.457Z,2.40
2018-02-10T15:14:05.912Z,2.40
2018-02-10T15:16:34.671Z,2.40
2018-02-10T15:19:03.480Z,2.40
2018-02-10T15:21:32.273Z,2.30
2018-02-10T15:24:00.681Z,2.30
2018-02-10T15:26:29.057Z,2.20
2018-02-10T15:28:57.494Z,2.20
2018-02-10T15:34:35.244Z,2.20
2018-02-10T15:37:04.724Z,2.20
2018-02-10T15:39:33.339Z,2.20
2018-02-10T15:42:02.319Z,2.20
2018-02-10T15:44:30.873Z,2.30
2018-02-10T15:46:59.339Z,2.30
2018-02-10T15:49:28.628Z,2.20
2018-02-10T15:51:57.394Z,2.20
2018-02-10T15:54:25.927Z,2.20
2018-02-10T15:56:54.300Z,2.20
2018-02-10T15:59:22.770Z,2.20
2018-02-10T16:01:51.901Z,2.10
2018-02-10T16:04:20.345Z,2.10
2018-02-10T16:06:48.836Z,2.10
2018-02-10T16:09:17.247Z,2.10
2018-02-10T16:11:45.694Z,2.10
2018-02-10T16:14:14.899Z,2.10
2018-02-10T16:16:43.832Z,2.10
2018-02-10T16:19:13.397Z,2.10
2018-02-10T16:21:42.134Z,2.10
2018-02-10T16:24:10.564Z,2.10
2018-02-10T16:26:39.648Z,2.10
2018-02-10T16:29:08.269Z,2.10
2018-02-10T16:31:36.866Z,2.10
2018-02-10T16:34:06.936Z,2.10
2018-02-10T16:36:35.312Z,2.10
2018-02-10T16:39:03.980Z,2.10
2018-02-10T16:41:32.568Z,2.10
2018-02-10T16:44:01.381Z,2.10
2018-02-10T16:46:30.123Z,2.10
2018-02-10T16:48:58.784Z,2.10
2018-02-10T16:51:27.355Z,2.10
2018-02-10T16:53:55.663Z,2.10
2018-02-10T16:56:23.978Z,2.10
2018-02-10T16:58:52.752Z,2.10
2018-02-10T17:01:21.821Z,2.10
2018-02-10T17:03:50.132Z,2.00
2018-02-10T17:06:19.553Z,2.10
2018-02-10T17:08:47.890Z,2.10
2018-02-10T17:11:16.225Z,2.10
2018-02-10T17:13:44.555Z,2.20
2018-02-10T17:16:13.691Z,2.20
2018-02-10T17:18:41.984Z,2.20
2018-02-10T17:21:10.696Z,2.20
2018-02-10T17:23:38.980Z,2.20
2018-02-10T17:26:07.317Z,2.20
2018-02-10T17:28:35.585Z,2.20
2018-02-10T17:31:04.657Z,2.20
2018-02-10T17:33:32.916Z,2.20
2018-02-10T17:36:02.299Z,2.20
2018-02-10T17:38:31.322Z,2.20
2018-02-10T17:41:00.552Z,2.20
2018-02-10T17:43:28.803Z,2.20
2018-02-10T17:45:57.874Z,2.20
2018-02-10T17:48:26.129Z,2.20
2018-02-10T17:50:54.410Z,2.20
2018-02-10T17:53:22.921Z,2.10
2018-02-10T17:55:51.309Z,2.10
2018-02-10T17:58:19.582Z,2.20
2018-02-10T18:00:47.849Z,2.20
2018-02-10T18:03:16.858Z,2.20
2018-02-10T18:05:45.928Z,2.20
2018-02-10T18:08:15.019Z,2.10
2018-02-10T18:10:43.594Z,2.10
2018-02-10T18:13:12.083Z,2.20
2018-02-10T18:15:40.440Z,2.20
2018-02-10T18:18:08.999Z,2.20
2018-02-10T18:20:37.387Z,2.20
2018-02-10T18:23:05.698Z,2.20
2018-02-10T18:25:36.268Z,2.20
2018-02-10T18:28:05.368Z,2.10
2018-02-10T18:30:33.766Z,2.10
2018-02-10T18:33:03.222Z,2.10
2018-02-10T18:35:31.632Z,2.10
2018-02-10T18:38:00.165Z,2.10
2018-02-10T18:40:28.566Z,2.10
2018-02-10T18:42:57.615Z,2.10
2018-02-10T18:45:25.900Z,2.10
2018-02-10T18:47:54.219Z,2.10
2018-02-10T18:50:22.504Z,2.00
2018-02-10T18:52:50.775Z,2.10
2018-02-10T18:55:20.073Z,2.00
2018-02-10T18:57:48.428Z,2.00
2018-02-10T19:00:17.519Z,2.00
2018-02-10T19:02:45.779Z,2.00
2018-02-10T19:05:14.182Z,2.00
2018-02-10T19:07:42.479Z,2.00
2018-02-10T19:10:10.744Z,2.00
2018-02-10T19:12:39.027Z,2.00
2018-02-10T19:15:07.307Z,2.00
2018-02-10T19:17:35.596Z,2.00
2018-02-10T19:20:03.849Z,2.00
2018-02-10T19:22:32.890Z,1.90
2018-02-10T19:25:01.167Z,1.90
2018-02-10T19:27:29.488Z,1.90
2018-02-10T19:29:57.756Z,2.00
2018-02-10T19:32:26.069Z,2.00
2018-02-10T19:34:54.328Z,2.10
2018-02-10T19:37:22.614Z,2.00
2018-02-10T19:39:50.921Z,2.00
2018-02-10T19:42:19.256Z,2.00
2018-02-10T19:44:47.505Z,2.00
2018-02-10T19:47:15.781Z,2.00
2018-02-10T19:49:45.808Z,2.00
2018-02-10T19:52:14.166Z,2.00
2018-02-10T19:54:42.592Z,2.00
2018-02-10T19:57:10.843Z,2.00
2018-02-10T19:59:39.932Z,2.00
2018-02-10T20:02:08.214Z,2.00
2018-02-10T20:04:37.291Z,2.10
2018-02-10T20:07:05.587Z,2.10
2018-02-10T20:09:33.866Z,2.10
2018-02-10T20:12:02.123Z,2.10
2018-02-10T20:14:31.180Z,2.10
2018-02-10T20:16:59.590Z,2.10
2018-02-10T20:19:27.939Z,2.10
2018-02-10T20:21:56.275Z,2.10
2018-02-10T20:24:24.613Z,2.10
2018-02-10T20:26:52.919Z,2.00
2018-02-10T20:29:22.133Z,2.10
2018-02-10T20:31:50.426Z,2.00
2018-02-10T20:34:18.728Z,2.10
2018-02-10T20:36:47.020Z,2.10
2018-02-10T20:39:15.344Z,2.10
2018-02-10T20:41:44.414Z,2.20
2018-02-10T20:44:12.701Z,2.10
2018-02-10T20:46:41.149Z,2.20
2018-02-10T20:49:09.460Z,2.20
2018-02-10T20:51:37.724Z,2.10
2018-02-10T20:54:06.992Z,2.10
2018-02-10T20:56:35.248Z,2.10
2018-02-10T20:59:04.313Z,2.10
2018-02-10T21:01:32.611Z,2.10
2018-02-10T21:04:01.164Z,2.10
2018-02-10T21:06:30.365Z,2.40
2018-02-10T21:08:58.750Z,2.10
2018-02-10T21:11:27.030Z,2.10
2018-02-10T21:13:55.335Z,2.10
2018-02-10T21:16:23.628Z,2.10
2018-02-10T21:18:51.923Z,2.10
2018-02-10T21:21:20.204Z,2.10
2018-02-10T21:23:48.808Z,2.10
2018-02-10T21:26:17.093Z,2.10
2018-02-10T21:28:45.373Z,2.10
2018-02-10T21:31:13.648Z,2.10
2018-02-10T21:33:41.963Z,2.10
2018-02-10T21:36:10.273Z,2.10
2018-02-10T21:38:38.546Z,2.10
2018-02-10T21:41:06.824Z,2.10
2018-02-10T21:43:35.898Z,2.10
2018-02-10T21:46:04.216Z,2.10
2018-02-10T21:48:32.467Z,2.10
2018-02-10T21:51:01.561Z,2.10
2018-02-10T21:53:29.831Z,2.00
2018-02-10T21:55:58.108Z,2.10
2018-02-10T21:58:26.372Z,2.10
2018-02-10T22:00:54.669Z,2.10
2018-02-10T22:03:22.912Z,2.00
2018-02-10T22:05:51.942Z,2.00
2018-02-10T22:08:20.208Z,2.00
2018-02-10T22:10:48.496Z,2.00
2018-02-10T22:13:16.757Z,2.00
2018-02-10T22:15:45.042Z,2.00
2018-02-10T22:18:14.088Z,2.10
2018-02-10T22:20:43.121Z,2.10
2018-02-10T22:23:11.404Z,2.00
2018-02-10T22:25:39.849Z,2.10
2018-02-10T22:28:08.154Z,2.10
2018-02-10T22:30:36.492Z,2.10
2018-02-10T22:33:04.748Z,2.10
2018-02-10T22:35:33.792Z,2.00
2018-02-10T22:38:02.096Z,2.00
2018-02-10T22:40:31.079Z,2.00
2018-02-10T22:42:59.373Z,2.00
2018-02-10T22:45:27.623Z,2.00
2018-02-10T22:47:55.895Z,1.90
2018-02-10T22:50:24.141Z,1.90
2018-02-10T22:52:52.418Z,1.90
2018-02-10T22:55:20.748Z,1.90
2018-02-10T22:57:49.010Z,1.90
2018-02-10T23:00:17.282Z,1.90
2018-02-10T23:02:45.719Z,1.90
2018-02-10T23:05:13.979Z,1.90
2018-02-10T23:07:42.272Z,1.90
2018-02-10T23:10:10.579Z,1.90
2018-02-10T23:12:39.472Z,2.00
2018-02-10T23:15:07.738Z,2.00
2018-02-10T23:17:36.090Z,2.00
2018-02-10T23:20:04.351Z,2.00
2018-02-10T23:22:32.636Z,1.90
2018-02-10T23:25:00.916Z,1.90
2018-02-10T23:27:29.202Z,1.90
2018-02-10T23:29:57.460Z,1.90
2018-02-10T23:32:25.799Z,1.90
2018-02-10T23:34:54.108Z,1.90
2018-02-10T23:37:22.408Z,1.80
2018-02-10T23:39:50.683Z,1.80
2018-02-10T23:42:18.954Z,1.80
2018-02-10T23:44:48.004Z,1.80
2018-02-10T23:47:16.278Z,1.80
2018-02-10T23:49:44.563Z,1.90
2018-02-10T23:52:13.454Z,1.90
2018-02-10T23:54:42.474Z,1.90
2018-02-10T23:57:10.788Z,1.80
2018-02-10T23:59:39.164Z,1.90
